createdAt,value
2023-05-13T00:01:24.413Z,13.80
2023-05-13T00:03:51.202Z,11.80
2023-05-13T00:06:18.055Z,12.60
2023-05-13T00:08:44.840Z,12.73
2023-05-13T00:11:11.554Z,11.83
2023-05-13T00:13:38.304Z,12.13
2023-05-13T00:16:05.176Z,10.83
2023-05-13T00:18:31.996Z,11.30
2023-05-13T00:20:58.702Z,13.33
2023-05-13T00:23:25.408Z,11.00
2023-05-13T00:25:52.137Z,11.70
2023-05-13T00:28:19.696Z,14.73
2023-05-13T00:30:46.790Z,15.47
2023-05-13T00:33:13.455Z,11.00
2023-05-13T00:35:40.192Z,11.90
2023-05-13T00:38:07.282Z,11.80
2023-05-13T00:40:34.701Z,14.73
2023-05-13T00:43:01.387Z,15.30
2023-05-13T00:45:28.295Z,12.60
2023-05-13T00:47:55.296Z,13.97
2023-05-13T00:50:22.340Z,13.40
2023-05-13T00:52:51.154Z,16.77
2023-05-13T00:55:18.119Z,16.93
2023-05-13T00:57:44.777Z,12.37
2023-05-13T01:00:11.911Z,14.30
2023-05-13T01:02:44.099Z,17.47
2023-05-13T01:05:13.795Z,16.03
2023-05-13T01:07:51.390Z,14.00
2023-05-13T01:10:21.741Z,15.10
2023-05-13T01:12:52.402Z,15.20
2023-05-13T01:15:21.938Z,13.17
2023-05-13T01:18:06.748Z,15.00
2023-05-13T01:20:34.673Z,17.90
2023-05-13T01:23:01.644Z,16.57
2023-05-13T01:25:28.400Z,16.47
2023-05-13T01:27:55.614Z,16.47
2023-05-13T01:30:23.834Z,15.77
2023-05-13T01:32:51.746Z,17.17
2023-05-13T01:35:19.767Z,17.43
2023-05-13T01:37:47.387Z,16.27
2023-05-13T01:40:24.079Z,16.93
2023-05-13T01:42:58.821Z,19.17
2023-05-13T01:45:45.592Z,17.90
2023-05-13T01:48:12.835Z,19.30
2023-05-13T01:50:44.133Z,19.03
2023-05-13T01:53:11.011Z,17.87
2023-05-13T01:55:39.251Z,20.13
2023-05-13T01:58:06.091Z,20.60
2023-05-13T02:00:32.920Z,18.03
2023-05-13T02:03:00.634Z,17.57
2023-05-13T02:05:28.104Z,17.67
2023-05-13T02:07:56.583Z,20.50
2023-05-13T02:10:23.569Z,17.53
2023-05-13T02:12:50.450Z,16.83
2023-05-13T02:15:18.266Z,19.03
2023-05-13T02:17:45.090Z,18.60
2023-05-13T02:20:12.780Z,18.57
2023-05-13T02:22:39.616Z,18.80
2023-05-13T02:25:07.535Z,18.97
2023-05-13T02:27:37.217Z,22.03
2023-05-13T02:30:04.870Z,19.93
2023-05-13T02:32:31.956Z,19.33
2023-05-13T02:34:58.698Z,21.37
2023-05-13T02:37:25.744Z,19.57
2023-05-13T02:39:59.942Z,17.53
2023-05-13T02:42:27.119Z,20.30
2023-05-13T02:44:55.008Z,20.43
2023-05-13T02:47:22.918Z,22.57
2023-05-13T02:49:50.443Z,18.60
2023-05-13T02:52:17.159Z,18.93
2023-05-13T02:54:44.051Z,17.83
2023-05-13T02:57:11.467Z,19.07
2023-05-13T02:59:38.785Z,19.20
2023-05-13T03:02:05.721Z,20.93
2023-05-13T03:04:32.765Z,22.00
2023-05-13T03:06:59.600Z,20.00
2023-05-13T03:09:26.270Z,18.07
2023-05-13T03:11:53.187Z,19.73
2023-05-13T03:14:20.557Z,23.43
2023-05-13T03:16:47.307Z,20.63
2023-05-13T03:19:14.950Z,19.17
2023-05-13T03:21:42.022Z,21.37
2023-05-13T03:24:12.070Z,20.53
2023-05-13T03:26:39.262Z,20.87
2023-05-13T03:29:07.024Z,18.50
2023-05-13T03:31:35.414Z,20.40
2023-05-13T03:34:03.927Z,21.93
2023-05-13T03:36:30.876Z,20.10
2023-05-13T03:38:57.728Z,20.83
2023-05-13T03:41:24.616Z,19.27
2023-05-13T03:43:51.939Z,19.53
2023-05-13T03:46:18.832Z,21.50
2023-05-13T03:48:45.786Z,23.07
2023-05-13T03:51:12.996Z,24.17
2023-05-13T03:53:40.060Z,25.63
2023-05-13T03:56:07.926Z,27.37
2023-05-13T03:58:34.691Z,33.13
2023-05-13T04:01:01.670Z,33.00
2023-05-13T04:03:28.654Z,34.03
2023-05-13T04:05:56.134Z,30.00
2023-05-13T04:08:22.861Z,29.03
2023-05-13T04:10:49.686Z,30.67
2023-05-13T04:13:16.524Z,27.47
2023-05-13T04:15:44.004Z,32.57
2023-05-13T04:18:10.799Z,32.00
2023-05-13T04:20:38.070Z,32.67
2023-05-13T04:23:05.149Z,30.63
2023-05-13T04:25:32.062Z,28.20
2023-05-13T04:27:58.843Z,25.70
2023-05-13T04:30:30.686Z,23.33
2023-05-13T04:32:58.004Z,22.30
2023-05-13T04:35:25.207Z,23.07
2023-05-13T04:37:56.842Z,23.33
2023-05-13T04:40:23.923Z,23.67
2023-05-13T04:42:55.127Z,24.73
2023-05-13T04:45:27.286Z,24.33
2023-05-13T04:47:58.369Z,25.23
2023-05-13T04:50:25.604Z,26.13
2023-05-13T04:52:54.986Z,21.40
2023-05-13T04:55:23.464Z,18.57
2023-05-13T04:57:51.187Z,18.93
2023-05-13T05:00:18.331Z,16.37
2023-05-13T05:02:47.516Z,19.07
2023-05-13T05:05:16.714Z,16.57
2023-05-13T05:07:45.052Z,16.43
2023-05-13T05:10:11.812Z,16.17
2023-05-13T05:12:42.905Z,14.50
2023-05-13T05:15:16.099Z,15.67
2023-05-13T05:17:46.087Z,14.70
2023-05-13T05:20:13.840Z,12.10
2023-05-13T05:22:42.429Z,12.97
2023-05-13T05:25:11.836Z,12.10
2023-05-13T05:27:39.010Z,13.23
2023-05-13T05:30:07.084Z,13.00
2023-05-13T05:32:35.697Z,11.80
2023-05-13T05:35:04.107Z,11.63
2023-05-13T05:37:32.376Z,11.43
2023-05-13T05:39:59.607Z,12.97
2023-05-13T05:42:27.380Z,10.57
2023-05-13T05:44:54.238Z,11.87
2023-05-13T05:47:21.064Z,10.23
2023-05-13T05:49:48.160Z,12.63
2023-05-13T05:52:16.417Z,14.07
2023-05-13T05:54:44.333Z,11.07
2023-05-13T05:57:11.206Z,9.90
2023-05-13T05:59:37.889Z,10.63
2023-05-13T06:02:04.866Z,10.37
2023-05-13T06:04:31.770Z,11.70
2023-05-13T06:06:58.538Z,12.47
2023-05-13T06:09:26.034Z,11.87
2023-05-13T06:11:53.484Z,11.90
2023-05-13T06:14:20.325Z,12.23
2023-05-13T06:16:47.070Z,12.00
2023-05-13T06:19:15.975Z,13.03
2023-05-13T06:21:43.435Z,16.33
2023-05-13T06:24:10.205Z,12.60
2023-05-13T06:26:37.076Z,14.10
2023-05-13T06:29:04.028Z,11.23
2023-05-13T06:31:34.034Z,12.80
2023-05-13T06:34:01.686Z,11.63
2023-05-13T06:36:28.830Z,11.90
2023-05-13T06:38:55.992Z,11.03
2023-05-13T06:41:24.090Z,11.17
2023-05-13T06:43:53.862Z,13.60
2023-05-13T06:46:22.321Z,10.30
2023-05-13T06:48:52.529Z,10.43
2023-05-13T06:51:19.542Z,11.47
2023-05-13T06:53:46.509Z,9.73
2023-05-13T06:56:13.284Z,9.73
2023-05-13T06:58:40.043Z,9.90
2023-05-13T07:01:06.987Z,11.60
2023-05-13T07:03:33.861Z,10.10
2023-05-13T07:06:00.620Z,14.03
2023-05-13T07:08:27.717Z,12.23
2023-05-13T07:10:54.731Z,11.60
2023-05-13T07:13:21.910Z,9.23
2023-05-13T07:15:48.869Z,10.07
2023-05-13T07:18:16.195Z,11.60
2023-05-13T07:20:43.665Z,10.13
2023-05-13T07:23:10.462Z,9.43
2023-05-13T07:25:37.285Z,8.80
2023-05-13T07:28:04.534Z,9.27
2023-05-13T07:30:31.454Z,9.33
2023-05-13T07:32:58.254Z,9.43
2023-05-13T07:35:25.094Z,9.77
2023-05-13T07:37:51.836Z,9.80
2023-05-13T07:40:18.763Z,10.10
2023-05-13T07:42:45.582Z,11.90
2023-05-13T07:45:12.279Z,10.27
2023-05-13T07:47:39.144Z,11.33
2023-05-13T07:50:06.536Z,12.17
2023-05-13T07:52:33.351Z,10.33
2023-05-13T07:54:59.988Z,9.60
2023-05-13T07:57:26.656Z,9.43
2023-05-13T07:59:54.334Z,9.40
2023-05-13T08:02:21.148Z,9.17
2023-05-13T08:04:47.933Z,9.60
2023-05-13T08:07:14.718Z,9.30
2023-05-13T08:09:41.384Z,9.53
2023-05-13T08:12:08.268Z,8.97
2023-05-13T08:14:36.160Z,14.50
2023-05-13T08:17:04.398Z,10.60
2023-05-13T08:19:31.338Z,8.93
2023-05-13T08:21:58.109Z,11.00
2023-05-13T08:24:24.826Z,9.87
2023-05-13T08:26:51.595Z,10.37
2023-05-13T08:29:18.237Z,11.50
2023-05-13T08:31:45.076Z,9.30
2023-05-13T08:34:12.067Z,9.40
2023-05-13T08:36:38.752Z,10.07
2023-05-13T08:39:05.456Z,9.83
2023-05-13T08:41:32.748Z,9.63
2023-05-13T08:43:59.773Z,8.83
2023-05-13T08:46:27.959Z,13.47
2023-05-13T08:48:55.851Z,9.57
2023-05-13T08:51:22.837Z,10.23
2023-05-13T08:53:50.004Z,11.43
2023-05-13T08:56:16.804Z,8.63
2023-05-13T08:58:43.591Z,8.60
2023-05-13T09:01:10.361Z,8.13
2023-05-13T09:03:41.390Z,9.23
2023-05-13T09:06:08.445Z,10.10
2023-05-13T09:08:35.136Z,9.77
2023-05-13T09:11:01.956Z,8.10
2023-05-13T09:13:29.527Z,11.87
2023-05-13T09:15:56.610Z,12.60
2023-05-13T09:18:29.802Z,13.13
2023-05-13T09:20:56.678Z,12.40
2023-05-13T09:23:23.937Z,8.40
2023-05-13T09:25:50.763Z,12.37
2023-05-13T09:28:17.570Z,10.17
2023-05-13T09:30:46.898Z,10.60
2023-05-13T09:33:15.268Z,10.77
2023-05-13T09:35:48.822Z,10.20
2023-05-13T09:38:19.710Z,9.70
2023-05-13T09:40:52.288Z,8.17
2023-05-13T09:43:19.894Z,9.23
2023-05-13T09:45:46.666Z,11.50
2023-05-13T09:48:14.572Z,10.23
2023-05-13T09:50:49.691Z,8.53
2023-05-13T09:53:16.710Z,8.57
2023-05-13T09:55:50.516Z,7.93
2023-05-13T09:58:19.217Z,8.57
2023-05-13T10:00:46.588Z,8.50
2023-05-13T10:03:14.215Z,7.90
2023-05-13T10:05:41.256Z,8.27
2023-05-13T10:08:12.274Z,7.07
2023-05-13T10:10:39.270Z,8.10
2023-05-13T10:13:08.735Z,7.67
2023-05-13T10:15:36.105Z,6.93
2023-05-13T10:18:04.193Z,10.20
2023-05-13T10:20:32.899Z,7.77
2023-05-13T10:23:00.118Z,6.40
2023-05-13T10:25:27.105Z,7.00
2023-05-13T10:27:56.007Z,8.37
2023-05-13T10:30:26.503Z,7.57
2023-05-13T10:32:54.792Z,7.13
2023-05-13T10:35:23.991Z,9.03
2023-05-13T10:38:00.416Z,7.47
2023-05-13T10:40:46.097Z,10.50
2023-05-13T10:43:18.366Z,8.13
2023-05-13T10:45:49.281Z,7.30
2023-05-13T10:48:16.844Z,8.70
2023-05-13T10:50:57.695Z,8.50
2023-05-13T10:53:25.777Z,7.93
2023-05-13T10:55:53.220Z,7.83
2023-05-13T10:58:22.631Z,9.23
2023-05-13T11:00:51.232Z,5.53
2023-05-13T11:03:18.152Z,6.90
2023-05-13T11:05:47.365Z,6.63
2023-05-13T11:08:32.831Z,5.67
2023-05-13T11:10:59.548Z,5.67
2023-05-13T11:13:36.048Z,6.47
2023-05-13T11:16:05.945Z,6.43
2023-05-13T11:18:34.658Z,6.37
2023-05-13T11:21:05.688Z,9.03
2023-05-13T11:23:51.633Z,10.30
2023-05-13T11:26:19.203Z,5.47
2023-05-13T11:28:59.243Z,5.50
2023-05-13T11:31:26.962Z,9.33
2023-05-13T11:34:12.121Z,8.07
2023-05-13T11:36:40.629Z,8.27
2023-05-13T11:39:07.457Z,7.87
2023-05-13T11:41:34.579Z,10.60
2023-05-13T11:44:03.474Z,10.00
2023-05-13T11:46:30.455Z,7.40
2023-05-13T11:48:57.268Z,7.03
2023-05-13T11:51:25.553Z,7.47
2023-05-13T11:53:55.319Z,6.20
2023-05-13T11:56:26.255Z,7.20
2023-05-13T11:58:53.535Z,7.37
2023-05-13T12:01:21.297Z,8.60
2023-05-13T12:03:48.333Z,9.10
2023-05-13T12:06:16.000Z,9.80
2023-05-13T12:08:46.537Z,9.83
2023-05-13T12:11:13.531Z,4.40
2023-05-13T12:13:41.744Z,6.50
2023-05-13T12:16:08.784Z,5.73
2023-05-13T12:18:37.420Z,9.43
2023-05-13T12:21:14.372Z,5.30
2023-05-13T12:23:41.166Z,5.10
2023-05-13T12:26:08.330Z,7.07
2023-05-13T12:28:34.980Z,7.57
2023-05-13T12:31:02.849Z,5.77
2023-05-13T12:33:30.702Z,6.27
2023-05-13T12:36:16.060Z,7.20
2023-05-13T12:38:58.132Z,5.40
2023-05-13T12:41:29.054Z,5.87
2023-05-13T12:43:57.696Z,158.60
2023-05-13T12:46:24.870Z,76.47
2023-05-13T12:48:59.503Z,15.40
2023-05-13T12:51:26.382Z,5.33
2023-05-13T12:53:54.692Z,10.57
2023-05-13T12:56:25.131Z,4.97
2023-05-13T12:58:53.541Z,8.83
2023-05-13T13:01:20.727Z,4.27
2023-05-13T13:03:47.618Z,7.00
2023-05-13T13:06:15.135Z,2.70
2023-05-13T13:08:41.856Z,10.13
2023-05-13T13:11:09.147Z,15.97
2023-05-13T13:13:38.750Z,12.77
2023-05-13T13:16:06.466Z,10.93
2023-05-13T13:18:33.476Z,6.07
2023-05-13T13:21:00.243Z,3.40
2023-05-13T13:23:27.279Z,3.50
2023-05-13T13:25:54.385Z,2.00
2023-05-13T13:28:21.613Z,3.13
2023-05-13T13:30:48.455Z,4.70
2023-05-13T13:33:15.714Z,4.97
2023-05-13T13:35:44.014Z,2.00
2023-05-13T13:38:11.262Z,2.50
2023-05-13T13:40:38.140Z,3.90
2023-05-13T13:43:05.748Z,4.53
2023-05-13T13:45:32.410Z,2.70
2023-05-13T13:47:59.460Z,2.90
2023-05-13T13:50:26.477Z,2.47
2023-05-13T13:52:53.288Z,2.43
2023-05-13T13:55:20.524Z,7.63
2023-05-13T13:57:47.957Z,5.10
2023-05-13T14:00:15.452Z,3.00
2023-05-13T14:02:42.925Z,3.00
2023-05-13T14:05:10.149Z,2.27
2023-05-13T14:07:37.556Z,3.80
2023-05-13T14:10:05.154Z,3.90
2023-05-13T14:12:32.541Z,2.77
2023-05-13T14:14:59.962Z,4.37
2023-05-13T14:17:26.934Z,3.03
2023-05-13T14:19:55.779Z,3.33
2023-05-13T14:22:23.856Z,3.83
2023-05-13T14:24:51.964Z,2.90
2023-05-13T14:27:18.762Z,3.13
2023-05-13T14:29:46.526Z,2.53
2023-05-13T14:32:13.294Z,4.40
2023-05-13T14:34:40.047Z,3.40
2023-05-13T14:37:07.063Z,3.22
2023-05-13T14:39:33.834Z,3.17
2023-05-13T14:42:00.705Z,3.40
2023-05-13T14:44:27.966Z,3.10
2023-05-13T14:46:55.063Z,2.83
2023-05-13T14:49:21.854Z,3.77
2023-05-13T14:51:48.652Z,3.13
2023-05-13T14:54:18.014Z,3.67
2023-05-13T14:56:45.066Z,2.43
2023-05-13T14:59:11.815Z,2.63
2023-05-13T15:01:38.747Z,3.30
2023-05-13T15:04:05.802Z,6.20
2023-05-13T15:06:32.951Z,3.03
2023-05-13T15:08:59.847Z,4.83
2023-05-13T15:11:29.466Z,3.03
2023-05-13T15:13:56.161Z,3.87
2023-05-13T15:16:22.995Z,3.20
2023-05-13T15:18:50.559Z,2.60
2023-05-13T15:21:18.039Z,3.80
2023-05-13T15:23:44.950Z,4.43
2023-05-13T15:26:11.798Z,6.37
2023-05-13T15:28:38.530Z,3.63
2023-05-13T15:31:05.607Z,3.33
2023-05-13T15:33:32.941Z,6.27
2023-05-13T15:35:59.843Z,3.87
2023-05-13T15:38:26.966Z,3.87
2023-05-13T15:40:53.698Z,3.27
2023-05-13T15:43:20.569Z,3.50
2023-05-13T15:45:47.554Z,4.87
2023-05-13T15:48:14.410Z,4.70
2023-05-13T15:50:41.620Z,3.80
2023-05-13T15:53:08.469Z,3.80
2023-05-13T15:55:37.076Z,5.83
2023-05-13T15:58:03.858Z,4.30
2023-05-13T16:00:31.357Z,4.03
2023-05-13T16:02:58.236Z,4.63
2023-05-13T16:05:24.956Z,3.13
2023-05-13T16:07:51.688Z,4.70
2023-05-13T16:10:19.166Z,3.37
2023-05-13T16:12:46.003Z,4.40
2023-05-13T16:15:12.796Z,3.20
2023-05-13T16:17:39.785Z,3.50
2023-05-13T16:20:07.443Z,3.33
2023-05-13T16:22:38.254Z,3.70
2023-05-13T16:25:06.029Z,4.70
2023-05-13T16:27:32.855Z,2.50
2023-05-13T16:30:00.874Z,2.50
2023-05-13T16:32:28.400Z,4.17
2023-05-13T16:34:55.540Z,3.03
2023-05-13T16:37:22.345Z,4.17
2023-05-13T16:39:49.191Z,3.07
2023-05-13T16:42:15.941Z,2.37
2023-05-13T16:44:43.158Z,6.43
2023-05-13T16:47:09.983Z,2.83
2023-05-13T16:49:37.124Z,3.50
2023-05-13T16:52:04.518Z,2.60
2023-05-13T16:54:32.296Z,2.87
2023-05-13T16:56:59.402Z,2.77
2023-05-13T16:59:26.776Z,2.53
2023-05-13T17:01:54.026Z,3.57
2023-05-13T17:04:21.335Z,3.63
2023-05-13T17:06:48.097Z,2.50
2023-05-13T17:09:14.982Z,3.77
2023-05-13T17:11:42.028Z,4.30
2023-05-13T17:14:09.107Z,2.93
2023-05-13T17:16:36.640Z,7.33
2023-05-13T17:19:03.379Z,4.43
2023-05-13T17:21:30.361Z,5.13
2023-05-13T17:23:57.277Z,7.23
2023-05-13T17:26:24.134Z,5.10
2023-05-13T17:28:51.343Z,4.00
2023-05-13T17:31:18.306Z,4.57
2023-05-13T17:33:45.088Z,6.23
2023-05-13T17:36:11.943Z,5.23
2023-05-13T17:38:38.713Z,5.97
2023-05-13T17:41:05.588Z,7.93
2023-05-13T17:43:32.357Z,7.40
2023-05-13T17:45:59.306Z,9.60
2023-05-13T17:48:26.946Z,6.50
2023-05-13T17:50:53.907Z,5.83
2023-05-13T17:53:21.159Z,6.20
2023-05-13T17:55:48.896Z,6.30
2023-05-13T17:58:16.439Z,5.90
2023-05-13T18:00:43.740Z,5.77
2023-05-13T18:03:10.710Z,6.63
2023-05-13T18:05:37.481Z,6.30
2023-05-13T18:08:04.511Z,6.47
2023-05-13T18:10:31.250Z,6.10
2023-05-13T18:12:57.984Z,5.57
2023-05-13T18:15:24.718Z,6.23
2023-05-13T18:17:51.460Z,7.17
2023-05-13T18:20:18.847Z,5.87
2023-05-13T18:22:45.722Z,6.40
2023-05-13T18:25:12.652Z,6.47
2023-05-13T18:27:39.553Z,6.70
2023-05-13T18:30:06.954Z,6.87
2023-05-13T18:32:33.781Z,7.30
2023-05-13T18:35:00.567Z,8.33
2023-05-13T18:37:27.317Z,6.93
2023-05-13T18:39:54.046Z,6.00
2023-05-13T18:42:21.434Z,7.20
2023-05-13T18:44:48.206Z,8.13
2023-05-13T18:47:14.957Z,8.57
2023-05-13T18:49:42.568Z,10.80
2023-05-13T18:52:09.542Z,11.40
2023-05-13T18:54:37.156Z,11.57
2023-05-13T18:57:04.098Z,15.27
2023-05-13T18:59:31.001Z,9.30
2023-05-13T19:01:58.707Z,15.27
2023-05-13T19:04:26.077Z,11.37
2023-05-13T19:06:53.426Z,12.73
2023-05-13T19:09:21.834Z,12.90
2023-05-13T19:11:48.733Z,13.73
2023-05-13T19:14:15.469Z,12.47
2023-05-13T19:16:42.227Z,12.13
2023-05-13T19:19:09.076Z,14.23
2023-05-13T19:21:36.067Z,12.83
2023-05-13T19:24:03.554Z,12.97
2023-05-13T19:26:30.529Z,15.50
2023-05-13T19:28:57.286Z,12.23
2023-05-13T19:31:24.824Z,13.97
2023-05-13T19:33:51.558Z,15.13
2023-05-13T19:36:18.562Z,14.87
2023-05-13T19:38:45.525Z,17.13
2023-05-13T19:41:12.290Z,12.47
2023-05-13T19:43:39.174Z,13.00
2023-05-13T19:46:08.975Z,14.53
2023-05-13T19:48:35.866Z,12.77
2023-05-13T19:51:02.612Z,13.37
2023-05-13T19:53:29.389Z,11.70
2023-05-13T19:55:56.214Z,14.50
2023-05-13T19:58:23.058Z,11.70
2023-05-13T20:00:49.775Z,11.77
2023-05-13T20:03:16.630Z,11.63
2023-05-13T20:05:43.877Z,11.70
2023-05-13T20:08:10.865Z,13.67
2023-05-13T20:10:37.647Z,12.00
2023-05-13T20:13:04.974Z,13.83
2023-05-13T20:15:32.235Z,13.10
2023-05-13T20:17:59.181Z,11.60
2023-05-13T20:20:26.024Z,12.43
2023-05-13T20:22:52.799Z,12.63
2023-05-13T20:25:19.825Z,13.13
2023-05-13T20:27:46.798Z,14.43
2023-05-13T20:30:14.485Z,14.50
2023-05-13T20:32:42.151Z,14.50
2023-05-13T20:35:09.692Z,14.00
2023-05-13T20:37:36.812Z,16.70
2023-05-13T20:40:04.728Z,14.07
2023-05-13T20:42:32.139Z,13.47
2023-05-13T20:44:59.897Z,14.00
2023-05-13T20:47:27.037Z,13.50
2023-05-13T20:49:53.778Z,13.40
2023-05-13T20:52:20.617Z,12.13
2023-05-13T20:54:47.342Z,13.33
2023-05-13T20:57:14.098Z,12.17
2023-05-13T20:59:40.858Z,11.87
2023-05-13T21:02:07.885Z,11.90
2023-05-13T21:04:34.608Z,11.37
2023-05-13T21:07:01.314Z,11.40
2023-05-13T21:09:28.435Z,12.40
2023-05-13T21:11:55.144Z,13.23
2023-05-13T21:14:21.923Z,13.17
2023-05-13T21:16:48.628Z,11.70
2023-05-13T21:19:22.626Z,12.10
2023-05-13T21:21:49.546Z,12.43
2023-05-13T21:24:17.493Z,12.70
2023-05-13T21:26:44.536Z,11.63
2023-05-13T21:29:11.401Z,12.50
2023-05-13T21:31:38.164Z,11.63
2023-05-13T21:34:04.861Z,12.73
2023-05-13T21:36:32.570Z,12.87
2023-05-13T21:38:59.306Z,11.73
2023-05-13T21:41:26.793Z,12.30
2023-05-13T21:43:53.591Z,11.87
2023-05-13T21:46:20.356Z,11.13
2023-05-13T21:48:47.129Z,11.70
2023-05-13T21:51:14.115Z,11.27
2023-05-13T21:53:40.828Z,12.13
2023-05-13T21:56:07.623Z,12.43
2023-05-13T21:58:34.347Z,12.60
2023-05-13T22:01:01.454Z,11.97
2023-05-13T22:03:28.629Z,12.47
2023-05-13T22:05:55.416Z,12.53
2023-05-13T22:08:22.264Z,12.17
2023-05-13T22:10:49.089Z,13.87
2023-05-13T22:13:15.881Z,12.10
2023-05-13T22:15:42.679Z,12.40
2023-05-13T22:18:09.581Z,12.30
2023-05-13T22:20:36.474Z,10.93
2023-05-13T22:23:03.202Z,11.13
2023-05-13T22:25:30.220Z,11.37
2023-05-13T22:27:56.983Z,11.60
2023-05-13T22:30:24.055Z,12.00
2023-05-13T22:32:51.641Z,12.00
2023-05-13T22:35:18.447Z,11.00
2023-05-13T22:37:45.181Z,11.93
2023-05-13T22:40:12.147Z,12.40
2023-05-13T22:42:38.914Z,14.00
2023-05-13T22:45:06.732Z,13.10
2023-05-13T22:47:34.672Z,13.07
2023-05-13T22:50:01.457Z,13.43
2023-05-13T22:52:28.472Z,15.83
2023-05-13T22:54:55.754Z,14.83
2023-05-13T22:57:22.860Z,16.63
2023-05-13T22:59:49.606Z,16.90
2023-05-13T23:02:16.354Z,17.03
2023-05-13T23:04:43.100Z,16.67
2023-05-13T23:07:09.821Z,16.17
2023-05-13T23:09:36.566Z,18.30
2023-05-13T23:12:03.606Z,17.73
2023-05-13T23:14:30.410Z,17.53
2023-05-13T23:16:57.676Z,17.07
2023-05-13T23:19:25.232Z,17.87
2023-05-13T23:21:52.087Z,16.77
2023-05-13T23:24:18.932Z,17.77
2023-05-13T23:26:47.409Z,18.07
2023-05-13T23:29:14.335Z,16.20
2023-05-13T23:31:41.330Z,16.67
2023-05-13T23:34:08.390Z,15.60
2023-05-13T23:36:35.135Z,15.83
2023-05-13T23:39:01.776Z,16.57
2023-05-13T23:41:28.835Z,17.93
2023-05-13T23:43:55.524Z,17.73
2023-05-13T23:46:22.460Z,17.80
2023-05-13T23:48:49.242Z,17.10
2023-05-13T23:51:15.958Z,18.47
2023-05-13T23:53:42.686Z,18.67
2023-05-13T23:56:09.435Z,18.03
2023-05-13T23:58:36.212Z,18.33
